createdAt,value
2018-02-14T00:00:40.704Z,68.49
2018-02-14T00:04:03.974Z,68.14
2018-02-14T00:07:27.262Z,67.64
2018-02-14T00:10:50.540Z,68.11
2018-02-14T00:14:13.820Z,68.34
2018-02-14T00:17:37.109Z,68.65
2018-02-14T00:21:01.169Z,68.16
2018-02-14T00:24:24.628Z,68.41
2018-02-14T00:27:47.902Z,68.45
2018-02-14T00:31:11.181Z,68.59
2018-02-14T00:34:34.508Z,70.09
2018-02-14T00:37:57.776Z,71.04
2018-02-14T00:41:21.051Z,71.49
2018-02-14T00:44:45.093Z,71.74
2018-02-14T00:48:09.157Z,71.55
2018-02-14T00:51:32.429Z,71.20
2018-02-14T00:54:55.743Z,71.83
2018-02-14T00:58:19.072Z,71.22
2018-02-14T01:01:42.392Z,71.07
2018-02-14T01:05:05.749Z,71.37
2018-02-14T01:08:29.019Z,70.81
2018-02-14T01:11:52.398Z,70.03
2018-02-14T01:15:15.720Z,69.17
2018-02-14T01:18:44.636Z,68.60
2018-02-14T01:22:08.737Z,68.75
2018-02-14T01:25:32.019Z,69.21
2018-02-14T01:28:55.342Z,69.23
2018-02-14T01:32:18.662Z,69.58
2018-02-14T01:35:41.926Z,69.24
2018-02-14T01:39:05.277Z,69.45
2018-02-14T01:42:29.311Z,68.07
2018-02-14T01:45:52.586Z,68.19
2018-02-14T01:49:15.922Z,67.87
2018-02-14T01:52:39.214Z,67.32
2018-02-14T01:56:02.496Z,67.15
2018-02-14T01:59:25.810Z,67.78
2018-02-14T02:02:49.146Z,67.09
2018-02-14T02:06:12.424Z,67.75
2018-02-14T02:09:36.554Z,67.03
2018-02-14T02:12:59.824Z,67.13
2018-02-14T02:16:23.142Z,67.08
2018-02-14T02:19:46.408Z,67.13
2018-02-14T02:23:09.706Z,69.16
2018-02-14T02:26:32.975Z,68.80
2018-02-14T02:29:56.298Z,68.61
2018-02-14T02:33:19.559Z,69.66
2018-02-14T02:36:42.834Z,69.07
2018-02-14T02:40:24.177Z,69.62
2018-02-14T02:43:47.469Z,70.32
2018-02-14T02:47:11.533Z,69.35
2018-02-14T02:50:34.867Z,69.94
2018-02-14T02:53:58.241Z,69.55
2018-02-14T02:57:21.501Z,69.77
2018-02-14T03:00:44.776Z,69.28
2018-02-14T03:04:08.817Z,68.80
2018-02-14T03:07:32.895Z,69.12
2018-02-14T03:10:56.227Z,69.37
2018-02-14T03:14:20.295Z,69.38
2018-02-14T03:17:43.581Z,69.67
2018-02-14T03:21:07.691Z,70.38
2018-02-14T03:24:30.951Z,70.13
2018-02-14T03:27:54.345Z,71.09
2018-02-14T03:31:17.632Z,70.05
2018-02-14T03:34:41.749Z,70.13
2018-02-14T03:38:05.081Z,69.36
2018-02-14T03:41:29.207Z,71.24
2018-02-14T03:44:52.541Z,70.02
2018-02-14T03:48:16.643Z,70.39
2018-02-14T03:51:40.753Z,70.20
2018-02-14T03:55:04.032Z,70.12
2018-02-14T03:58:28.082Z,70.41
2018-02-14T04:01:51.477Z,70.16
2018-02-14T04:05:14.771Z,69.52
2018-02-14T04:08:38.039Z,70.24
2018-02-14T04:12:01.323Z,70.43
2018-02-14T04:15:24.619Z,70.57
2018-02-14T04:18:48.658Z,70.46
2018-02-14T04:22:11.937Z,70.66
2018-02-14T04:25:35.213Z,70.66
2018-02-14T04:28:58.514Z,70.75
2018-02-14T04:32:21.843Z,71.93
2018-02-14T04:35:45.129Z,72.14
2018-02-14T04:39:08.413Z,72.72
2018-02-14T04:42:32.457Z,72.70
2018-02-14T04:45:55.752Z,72.87
2018-02-14T04:49:19.012Z,73.64
2018-02-14T04:52:42.293Z,73.53
2018-02-14T04:56:06.344Z,73.41
2018-02-14T04:59:30.464Z,73.38
2018-02-14T05:02:53.730Z,72.88
2018-02-14T05:06:17.012Z,72.40
2018-02-14T05:09:41.081Z,72.82
2018-02-14T05:13:04.408Z,70.80
2018-02-14T05:16:27.767Z,71.27
2018-02-14T05:19:51.098Z,71.62
2018-02-14T05:23:14.372Z,71.56
2018-02-14T05:26:38.409Z,71.87
2018-02-14T05:30:02.459Z,72.04
2018-02-14T05:33:25.728Z,71.54
2018-02-14T05:36:48.999Z,71.41
2018-02-14T05:40:12.268Z,71.11
2018-02-14T05:43:35.571Z,71.72
2018-02-14T05:46:59.601Z,72.24
2018-02-14T05:50:23.646Z,71.31
2018-02-14T05:53:46.939Z,71.54
2018-02-14T05:57:10.211Z,72.11
2018-02-14T06:00:33.503Z,72.54
2018-02-14T06:03:56.823Z,72.22
2018-02-14T06:07:20.893Z,74.10
2018-02-14T06:10:44.979Z,70.52
2018-02-14T06:14:08.252Z,70.68
2018-02-14T06:17:32.327Z,70.79
2018-02-14T06:20:55.698Z,71.18
2018-02-14T06:24:18.973Z,71.99
2018-02-14T06:27:42.245Z,72.54
2018-02-14T06:31:06.372Z,71.71
2018-02-14T06:34:29.651Z,70.14
2018-02-14T06:37:53.709Z,69.82
2018-02-14T06:41:16.995Z,70.44
2018-02-14T06:44:40.303Z,70.49
2018-02-14T06:48:03.579Z,70.77
2018-02-14T06:51:26.963Z,69.79
2018-02-14T06:54:50.991Z,69.16
2018-02-14T06:58:16.201Z,69.23
2018-02-14T07:01:39.527Z,67.91
2018-02-14T07:05:03.558Z,67.32
2018-02-14T07:08:28.375Z,68.21
2018-02-14T07:11:53.159Z,67.57
2018-02-14T07:15:16.448Z,68.19
2018-02-14T07:18:40.571Z,67.81
2018-02-14T07:22:03.843Z,67.20
2018-02-14T07:25:27.891Z,67.17
2018-02-14T07:28:52.021Z,67.62
2018-02-14T07:32:16.149Z,67.07
2018-02-14T07:35:39.525Z,66.24
2018-02-14T07:39:02.798Z,65.48
2018-02-14T07:42:26.851Z,65.97
2018-02-14T07:45:50.451Z,65.54
2018-02-14T07:49:13.773Z,66.33
2018-02-14T07:52:37.830Z,66.54
2018-02-14T07:56:01.159Z,65.99
2018-02-14T07:59:24.433Z,66.19
2018-02-14T08:02:47.801Z,65.54
2018-02-14T08:06:11.086Z,64.71
2018-02-14T08:09:34.453Z,64.59
2018-02-14T08:12:57.699Z,65.07
2018-02-14T08:16:21.039Z,62.95
2018-02-14T08:19:44.293Z,63.06
2018-02-14T08:23:08.608Z,64.52
2018-02-14T08:26:32.668Z,62.23
2018-02-14T08:29:55.937Z,61.16
2018-02-14T08:33:19.216Z,62.42
2018-02-14T08:36:42.592Z,61.88
2018-02-14T08:40:05.866Z,61.89
2018-02-14T08:43:29.997Z,61.08
2018-02-14T08:46:53.346Z,60.17
2018-02-14T08:50:16.661Z,60.74
2018-02-14T08:53:39.930Z,60.25
2018-02-14T08:57:03.214Z,60.50
2018-02-14T09:00:26.485Z,61.41
2018-02-14T09:03:49.810Z,60.71
2018-02-14T09:07:13.180Z,60.48
2018-02-14T09:10:36.490Z,60.68
2018-02-14T09:13:59.770Z,58.35
2018-02-14T09:17:24.627Z,56.71
2018-02-14T09:20:49.738Z,55.50
2018-02-14T09:24:13.784Z,56.01
2018-02-14T09:27:37.855Z,55.34
2018-02-14T09:31:01.979Z,55.69
2018-02-14T09:34:25.505Z,55.31
2018-02-14T09:37:48.804Z,54.73
2018-02-14T09:41:12.935Z,55.35
2018-02-14T09:44:36.969Z,53.97
2018-02-14T09:48:01.021Z,55.45
2018-02-14T09:51:25.079Z,56.61
2018-02-14T09:54:48.332Z,56.05
2018-02-14T09:58:11.623Z,56.56
2018-02-14T10:01:35.755Z,57.80
2018-02-14T10:04:59.023Z,56.03
2018-02-14T10:08:22.396Z,57.08
2018-02-14T10:11:45.686Z,57.73
2018-02-14T10:15:09.122Z,57.52
2018-02-14T10:18:32.441Z,57.78
2018-02-14T10:21:55.811Z,57.86
2018-02-14T10:25:19.191Z,57.29
2018-02-14T10:28:42.633Z,58.24
2018-02-14T10:32:06.801Z,57.34
2018-02-14T10:35:30.131Z,57.29
2018-02-14T10:38:54.219Z,57.56
2018-02-14T10:42:17.712Z,57.23
2018-02-14T10:45:41.146Z,56.50
2018-02-14T10:49:04.394Z,56.66
2018-02-14T10:52:28.515Z,55.71
2018-02-14T10:55:52.565Z,53.75
2018-02-14T10:59:16.605Z,54.69
2018-02-14T11:02:46.338Z,53.84
2018-02-14T11:06:13.537Z,51.74
2018-02-14T11:09:36.992Z,52.23
2018-02-14T11:13:01.028Z,51.72
2018-02-14T11:16:25.080Z,52.83
2018-02-14T11:19:49.234Z,52.51
2018-02-14T11:23:12.566Z,52.16
2018-02-14T11:26:35.984Z,51.13
2018-02-14T11:29:59.285Z,51.52
2018-02-14T11:33:22.559Z,50.84
2018-02-14T11:36:45.832Z,50.72
2018-02-14T11:40:09.119Z,49.52
2018-02-14T11:43:33.249Z,49.77
2018-02-14T11:46:56.520Z,49.69
2018-02-14T11:50:20.582Z,48.78
2018-02-14T11:53:43.852Z,49.00
2018-02-14T11:57:07.192Z,50.37
2018-02-14T12:00:31.666Z,50.44
2018-02-14T12:03:54.974Z,47.70
2018-02-14T12:07:18.280Z,47.85
2018-02-14T12:10:42.389Z,46.44
2018-02-14T12:14:05.966Z,46.42
2018-02-14T12:17:29.312Z,47.48
2018-02-14T12:20:52.723Z,47.14
2018-02-14T12:24:16.870Z,46.53
2018-02-14T12:27:40.967Z,46.80
2018-02-14T12:31:05.036Z,46.80
2018-02-14T12:34:28.612Z,45.65
2018-02-14T12:37:52.036Z,49.22
2018-02-14T12:41:15.454Z,47.85
2018-02-14T12:44:39.698Z,47.05
2018-02-14T12:48:03.184Z,45.32
2018-02-14T12:51:26.627Z,45.27
2018-02-14T12:54:50.058Z,45.20
2018-02-14T12:58:15.655Z,43.29
2018-02-14T13:01:39.061Z,44.30
2018-02-14T13:05:02.401Z,43.63
2018-02-14T13:08:25.887Z,43.28
2018-02-14T13:11:49.365Z,45.83
2018-02-14T13:15:13.344Z,46.95
2018-02-14T13:18:37.495Z,45.75
2018-02-14T13:22:00.941Z,43.66
2018-02-14T13:25:24.373Z,42.12
2018-02-14T13:28:47.727Z,41.73
2018-02-14T13:32:11.888Z,41.67
2018-02-14T13:35:35.434Z,40.73
2018-02-14T13:38:58.839Z,41.61
2018-02-14T13:42:22.157Z,42.26
2018-02-14T13:45:45.476Z,42.60
2018-02-14T13:49:08.809Z,43.18
2018-02-14T13:52:32.940Z,42.53
2018-02-14T13:55:56.212Z,42.67
2018-02-14T13:59:20.266Z,42.08
2018-02-14T14:02:43.593Z,41.84
2018-02-14T14:06:06.948Z,41.82
2018-02-14T14:09:31.076Z,41.35
2018-02-14T14:12:54.343Z,41.25
2018-02-14T14:16:18.406Z,42.22
2018-02-14T14:19:41.742Z,40.15
2018-02-14T14:23:05.027Z,40.37
2018-02-14T14:26:29.089Z,41.41
2018-02-14T14:29:52.365Z,42.53
2018-02-14T14:33:16.807Z,43.79
2018-02-14T14:36:40.086Z,44.96
2018-02-14T14:40:04.125Z,45.11
2018-02-14T14:43:28.195Z,46.71
2018-02-14T14:46:51.486Z,46.29
2018-02-14T14:50:15.510Z,46.39
2018-02-14T14:53:39.652Z,46.17
2018-02-14T14:57:03.806Z,46.96
2018-02-14T15:00:27.920Z,46.88
2018-02-14T15:03:51.209Z,45.26
2018-02-14T15:07:15.887Z,46.02
2018-02-14T15:10:40.100Z,46.92
2018-02-14T15:14:03.497Z,47.02
2018-02-14T15:17:26.789Z,47.49
2018-02-14T15:20:50.915Z,47.69
2018-02-14T15:24:15.197Z,47.82
2018-02-14T15:27:38.513Z,47.90
2018-02-14T15:31:01.807Z,49.13
2018-02-14T15:34:25.207Z,48.83
2018-02-14T15:37:48.543Z,49.56
2018-02-14T15:41:12.830Z,49.32
2018-02-14T15:44:37.108Z,50.44
2018-02-14T15:48:01.323Z,50.42
2018-02-14T15:51:24.689Z,51.06
2018-02-14T15:54:48.789Z,51.55
2018-02-14T15:58:12.168Z,52.11
2018-02-14T16:01:35.468Z,53.14
2018-02-14T16:04:59.613Z,54.04
2018-02-14T16:08:23.680Z,53.77
2018-02-14T16:11:47.145Z,54.13
2018-02-14T16:15:10.439Z,54.90
2018-02-14T16:18:33.759Z,55.30
2018-02-14T16:21:57.033Z,55.81
2018-02-14T16:25:20.317Z,55.85
2018-02-14T16:28:43.573Z,56.32
2018-02-14T16:32:06.904Z,56.50
2018-02-14T16:35:30.326Z,56.70
2018-02-14T16:38:53.772Z,58.54
2018-02-14T16:42:17.888Z,58.46
2018-02-14T16:45:41.189Z,58.46
2018-02-14T16:49:04.469Z,59.40
2018-02-14T16:52:27.752Z,59.89
2018-02-14T16:55:51.800Z,60.06
2018-02-14T16:59:15.914Z,59.90
2018-02-14T17:02:39.321Z,60.57
2018-02-14T17:06:02.763Z,60.64
2018-02-14T17:09:27.396Z,60.87
2018-02-14T17:12:50.728Z,60.96
2018-02-14T17:16:14.001Z,60.87
2018-02-14T17:19:38.041Z,60.39
2018-02-14T17:23:02.189Z,60.57
2018-02-14T17:26:26.251Z,60.76
2018-02-14T17:29:49.580Z,61.29
2018-02-14T17:33:14.552Z,61.97
2018-02-14T17:36:38.156Z,62.17
2018-02-14T17:40:03.545Z,62.12
2018-02-14T17:43:29.376Z,62.70
2018-02-14T17:46:53.554Z,62.48
2018-02-14T17:50:17.612Z,62.61
2018-02-14T17:53:41.020Z,62.73
2018-02-14T17:57:05.186Z,62.67
2018-02-14T18:00:29.397Z,62.92
2018-02-14T18:03:53.497Z,63.00
2018-02-14T18:07:19.244Z,62.77
2018-02-14T18:10:42.596Z,62.93
2018-02-14T18:14:05.890Z,62.78
2018-02-14T18:17:29.973Z,62.65
2018-02-14T18:20:54.055Z,63.10
2018-02-14T18:24:17.352Z,62.15
2018-02-14T18:27:40.706Z,64.66
2018-02-14T18:31:04.257Z,63.45
2018-02-14T18:34:27.659Z,62.26
2018-02-14T18:37:51.728Z,62.64
2018-02-14T18:41:15.825Z,63.93
2018-02-14T18:44:40.036Z,62.58
2018-02-14T18:48:03.419Z,62.14
2018-02-14T18:51:27.812Z,62.60
2018-02-14T18:54:52.339Z,62.61
2018-02-14T18:58:17.247Z,61.99
2018-02-14T19:01:41.725Z,62.29
2018-02-14T19:05:06.538Z,62.67
2018-02-14T19:08:31.488Z,62.25
2018-02-14T19:11:55.581Z,62.66
2018-02-14T19:15:19.709Z,62.81
2018-02-14T19:18:43.895Z,62.97
2018-02-14T19:22:08.961Z,62.59
2018-02-14T19:25:32.994Z,62.08
2018-02-14T19:28:57.126Z,61.85
2018-02-14T19:32:20.395Z,62.53
2018-02-14T19:35:43.746Z,62.70
2018-02-14T19:39:07.249Z,63.17
2018-02-14T19:42:31.296Z,63.10
2018-02-14T19:45:55.340Z,63.44
2018-02-14T19:49:18.631Z,63.88
2018-02-14T19:52:41.931Z,63.38
2018-02-14T19:56:05.316Z,63.34
2018-02-14T19:59:28.593Z,63.88
2018-02-14T20:02:52.684Z,64.25
2018-02-14T20:06:16.939Z,63.89
2018-02-14T20:09:40.338Z,63.63
2018-02-14T20:13:05.741Z,64.59
2018-02-14T20:16:29.056Z,65.02
2018-02-14T20:19:52.411Z,65.35
2018-02-14T20:23:16.508Z,65.52
2018-02-14T20:26:39.897Z,65.81
2018-02-14T20:30:03.228Z,65.46
2018-02-14T20:33:28.521Z,66.10
2018-02-14T20:36:52.594Z,66.11
2018-02-14T20:40:16.678Z,66.26
2018-02-14T20:43:41.367Z,66.32
2018-02-14T20:47:05.490Z,66.85
2018-02-14T20:50:29.621Z,67.15
2018-02-14T20:53:52.992Z,67.29
2018-02-14T20:57:16.315Z,67.58
2018-02-14T21:00:40.652Z,67.96
2018-02-14T21:04:03.969Z,67.92
2018-02-14T21:07:27.293Z,67.57
2018-02-14T21:10:50.583Z,68.84
2018-02-14T21:14:14.691Z,72.17
2018-02-14T21:17:37.980Z,72.35
2018-02-14T21:21:01.419Z,68.45
2018-02-14T21:24:26.843Z,67.43
2018-02-14T21:27:50.316Z,67.41
2018-02-14T21:31:13.813Z,67.67
2018-02-14T21:34:38.100Z,67.03
2018-02-14T21:38:01.416Z,67.20
2018-02-14T21:41:24.873Z,67.20
2018-02-14T21:44:48.248Z,67.10
2018-02-14T21:48:11.663Z,67.06
2018-02-14T21:51:35.823Z,67.05
2018-02-14T21:54:59.302Z,67.26
2018-02-14T21:58:23.398Z,66.94
2018-02-14T22:01:47.501Z,68.07
2018-02-14T22:05:10.908Z,67.41
2018-02-14T22:08:34.970Z,67.25
2018-02-14T22:11:58.344Z,67.63
2018-02-14T22:15:21.657Z,67.02
2018-02-14T22:18:45.075Z,67.06
2018-02-14T22:22:08.367Z,67.75
2018-02-14T22:25:31.675Z,67.45
2018-02-14T22:28:55.103Z,67.75
2018-02-14T22:32:18.405Z,67.61
2018-02-14T22:35:41.676Z,67.38
2018-02-14T22:39:04.952Z,66.77
2018-02-14T22:42:28.231Z,66.22
2018-02-14T22:45:52.383Z,65.98
2018-02-14T22:49:15.698Z,66.40
2018-02-14T22:52:39.878Z,66.96
2018-02-14T22:56:04.012Z,67.52
2018-02-14T22:59:28.081Z,67.87
2018-02-14T23:02:51.360Z,68.02
2018-02-14T23:06:14.740Z,68.48
2018-02-14T23:09:38.057Z,68.29
2018-02-14T23:13:02.108Z,68.32
2018-02-14T23:16:26.228Z,68.25
2018-02-14T23:19:49.600Z,67.85
2018-02-14T23:23:12.896Z,67.31
2018-02-14T23:26:36.220Z,67.62
2018-02-14T23:29:59.527Z,68.41
2018-02-14T23:33:23.762Z,68.40
2018-02-14T23:36:47.806Z,67.49
2018-02-14T23:40:11.110Z,67.96
2018-02-14T23:43:35.228Z,68.22
2018-02-14T23:46:58.505Z,68.53
2018-02-14T23:50:22.715Z,68.63
2018-02-14T23:53:46.841Z,68.05
2018-02-14T23:57:11.041Z,67.75
